sensor_id;sensor_type;location;lat;lon;timestamp;temperature;humidity
8860;DHT22;4466;50.948;4.832;2024-01-07T00:00:13;3.80;99.90
8860;DHT22;4466;50.948;4.832;2024-01-07T00:02:39;3.80;99.90
8860;DHT22;4466;50.948;4.832;2024-01-07T00:05:05;3.70;99.90
8860;DHT22;4466;50.948;4.832;2024-01-07T00:07:33;3.70;99.90
8860;DHT22;4466;50.948;4.832;2024-01-07T00:10:05;3.70;99.90
8860;DHT22;4466;50.948;4.832;2024-01-07T00:12:31;3.50;99.90
8860;DHT22;4466;50.948;4.832;2024-01-07T00:14:57;3.60;99.90
8860;DHT22;4466;50.948;4.832;2024-01-07T00:17:23;3.70;99.90
8860;DHT22;4466;50.948;4.832;2024-01-07T00:19:48;3.60;99.90
8860;DHT22;4466;50.948;4.832;2024-01-07T00:22:22;3.60;99.90
8860;DHT22;4466;50.948;4.832;2024-01-07T00:24:47;3.60;99.90
8860;DHT22;4466;50.948;4.832;2024-01-07T00:27:13;3.60;99.90
8860;DHT22;4466;50.948;4.832;2024-01-07T00:29:46;3.50;99.90
8860;DHT22;4466;50.948;4.832;2024-01-07T00:32:18;3.60;99.90
8860;DHT22;4466;50.948;4.832;2024-01-07T00:34:44;3.50;99.90
8860;DHT22;4466;50.948;4.832;2024-01-07T00:37:09;3.50;99.90
8860;DHT22;4466;50.948;4.832;2024-01-07T00:39:36;3.50;99.90
8860;DHT22;4466;50.948;4.832;2024-01-07T00:42:02;3.50;99.90
8860;DHT22;4466;50.948;4.832;2024-01-07T00:47:03;3.40;99.90
8860;DHT22;4466;50.948;4.832;2024-01-07T00:49:35;3.40;99.90
8860;DHT22;4466;50.948;4.832;2024-01-07T00:52:03;3.40;99.90
8860;DHT22;4466;50.948;4.832;2024-01-07T00:54:29;3.30;99.90
8860;DHT22;4466;50.948;4.832;2024-01-07T00:56:55;3.30;99.90
8860;DHT22;4466;50.948;4.832;2024-01-07T00:59:26;3.30;99.90
8860;DHT22;4466;50.948;4.832;2024-01-07T01:01:59;3.30;99.90
8860;DHT22;4466;50.948;4.832;2024-01-07T01:04:25;3.40;99.90
8860;DHT22;4466;50.948;4.832;2024-01-07T01:06:50;3.20;99.90
8860;DHT22;4466;50.948;4.832;2024-01-07T01:09:28;3.30;99.90
8860;DHT22;4466;50.948;4.832;2024-01-07T01:11:54;3.20;99.90
8860;DHT22;4466;50.948;4.832;2024-01-07T01:14:19;3.20;99.90
8860;DHT22;4466;50.948;4.832;2024-01-07T01:16:51;3.20;99.90
8860;DHT22;4466;50.948;4.832;2024-01-07T01:19:18;3.20;99.90
8860;DHT22;4466;50.948;4.832;2024-01-07T01:21:43;3.20;99.90
8860;DHT22;4466;50.948;4.832;2024-01-07T01:24:12;3.20;99.90
8860;DHT22;4466;50.948;4.832;2024-01-07T01:26:38;3.20;99.90
8860;DHT22;4466;50.948;4.832;2024-01-07T01:29:05;3.20;99.90
8860;DHT22;4466;50.948;4.832;2024-01-07T01:31:33;3.20;99.90
8860;DHT22;4466;50.948;4.832;2024-01-07T01:34:05;3.20;99.90
8860;DHT22;4466;50.948;4.832;2024-01-07T01:36:31;3.20;99.90
8860;DHT22;4466;50.948;4.832;2024-01-07T01:38:57;3.20;99.90
8860;DHT22;4466;50.948;4.832;2024-01-07T01:41:23;3.20;99.90
8860;DHT22;4466;50.948;4.832;2024-01-07T01:43:48;3.20;99.90
8860;DHT22;4466;50.948;4.832;2024-01-07T01:46:14;3.20;99.90
8860;DHT22;4466;50.948;4.832;2024-01-07T01:48:40;3.20;99.90
8860;DHT22;4466;50.948;4.832;2024-01-07T01:51:07;3.20;99.90
8860;DHT22;4466;50.948;4.832;2024-01-07T01:53:33;3.20;99.90
8860;DHT22;4466;50.948;4.832;2024-01-07T01:56:01;3.20;99.90
8860;DHT22;4466;50.948;4.832;2024-01-07T01:58:29;3.10;99.90
8860;DHT22;4466;50.948;4.832;2024-01-07T02:00:55;3.20;99.90
8860;DHT22;4466;50.948;4.832;2024-01-07T02:03:21;3.10;99.90
8860;DHT22;4466;50.948;4.832;2024-01-07T02:05:48;3.10;99.90
8860;DHT22;4466;50.948;4.832;2024-01-07T02:08:14;3.10;99.90
8860;DHT22;4466;50.948;4.832;2024-01-07T02:10:40;3.10;99.90
8860;DHT22;4466;50.948;4.832;2024-01-07T02:13:06;3.20;99.90
8860;DHT22;4466;50.948;4.832;2024-01-07T02:15:34;3.20;99.90
8860;DHT22;4466;50.948;4.832;2024-01-07T02:18:00;3.10;99.90
8860;DHT22;4466;50.948;4.832;2024-01-07T02:20:26;3.10;99.90
8860;DHT22;4466;50.948;4.832;2024-01-07T02:22:51;3.20;99.90
8860;DHT22;4466;50.948;4.832;2024-01-07T02:25:17;3.20;99.90
8860;DHT22;4466;50.948;4.832;2024-01-07T02:27:43;3.20;99.90
8860;DHT22;4466;50.948;4.832;2024-01-07T02:30:09;3.20;99.90
8860;DHT22;4466;50.948;4.832;2024-01-07T02:32:34;3.20;99.90
8860;DHT22;4466;50.948;4.832;2024-01-07T02:35:01;3.20;99.90
8860;DHT22;4466;50.948;4.832;2024-01-07T02:37:27;3.20;99.90
8860;DHT22;4466;50.948;4.832;2024-01-07T02:39:53;3.20;99.90
8860;DHT22;4466;50.948;4.832;2024-01-07T02:42:21;3.20;99.90
8860;DHT22;4466;50.948;4.832;2024-01-07T02:44:47;3.10;99.90
8860;DHT22;4466;50.948;4.832;2024-01-07T02:47:13;3.10;99.90
8860;DHT22;4466;50.948;4.832;2024-01-07T02:49:38;3.10;99.90
8860;DHT22;4466;50.948;4.832;2024-01-07T02:52:04;3.20;99.90
8860;DHT22;4466;50.948;4.832;2024-01-07T02:54:30;3.20;99.90
8860;DHT22;4466;50.948;4.832;2024-01-07T02:56:56;3.20;99.90
8860;DHT22;4466;50.948;4.832;2024-01-07T02:59:21;3.20;99.90
8860;DHT22;4466;50.948;4.832;2024-01-07T03:01:47;3.10;99.90
8860;DHT22;4466;50.948;4.832;2024-01-07T03:04:15;3.10;99.90
8860;DHT22;4466;50.948;4.832;2024-01-07T03:06:41;3.10;99.90
8860;DHT22;4466;50.948;4.832;2024-01-07T03:09:07;3.10;99.90
8860;DHT22;4466;50.948;4.832;2024-01-07T03:11:33;3.10;99.90
8860;DHT22;4466;50.948;4.832;2024-01-07T03:13:59;3.10;99.90
8860;DHT22;4466;50.948;4.832;2024-01-07T03:16:27;3.10;99.90
8860;DHT22;4466;50.948;4.832;2024-01-07T03:18:53;3.10;99.90
8860;DHT22;4466;50.948;4.832;2024-01-07T03:21:21;3.10;99.90
8860;DHT22;4466;50.948;4.832;2024-01-07T03:23:48;3.10;99.90
8860;DHT22;4466;50.948;4.832;2024-01-07T03:26:15;3.00;99.90
8860;DHT22;4466;50.948;4.832;2024-01-07T03:28:41;3.00;99.90
8860;DHT22;4466;50.948;4.832;2024-01-07T03:31:12;3.10;99.90
8860;DHT22;4466;50.948;4.832;2024-01-07T03:33:42;3.00;99.90
8860;DHT22;4466;50.948;4.832;2024-01-07T03:36:09;3.10;99.90
8860;DHT22;4466;50.948;4.832;2024-01-07T03:38:35;3.10;99.90
8860;DHT22;4466;50.948;4.832;2024-01-07T03:41:01;3.10;99.90
8860;DHT22;4466;50.948;4.832;2024-01-07T03:43:27;3.00;99.90
8860;DHT22;4466;50.948;4.832;2024-01-07T03:45:53;3.00;99.90
8860;DHT22;4466;50.948;4.832;2024-01-07T03:48:21;3.00;99.90
8860;DHT22;4466;50.948;4.832;2024-01-07T03:50:47;3.00;99.90
8860;DHT22;4466;50.948;4.832;2024-01-07T03:53:13;3.00;99.90
8860;DHT22;4466;50.948;4.832;2024-01-07T03:55:39;3.00;99.90
8860;DHT22;4466;50.948;4.832;2024-01-07T03:58:06;3.00;99.90
8860;DHT22;4466;50.948;4.832;2024-01-07T04:00:35;3.00;99.90
8860;DHT22;4466;50.948;4.832;2024-01-07T04:03:02;3.00;99.90
8860;DHT22;4466;50.948;4.832;2024-01-07T04:08:04;3.00;99.90
8860;DHT22;4466;50.948;4.832;2024-01-07T04:10:29;3.00;99.90
8860;DHT22;4466;50.948;4.832;2024-01-07T04:12:55;3.10;99.90
8860;DHT22;4466;50.948;4.832;2024-01-07T04:15:24;3.10;99.90
8860;DHT22;4466;50.948;4.832;2024-01-07T04:17:50;3.00;99.90
8860;DHT22;4466;50.948;4.832;2024-01-07T04:20:24;3.20;99.90
8860;DHT22;4466;50.948;4.832;2024-01-07T04:22:50;3.10;99.90
8860;DHT22;4466;50.948;4.832;2024-01-07T04:25:16;3.20;99.90
8860;DHT22;4466;50.948;4.832;2024-01-07T04:27:44;3.10;99.90
8860;DHT22;4466;50.948;4.832;2024-01-07T04:30:10;3.00;99.90
8860;DHT22;4466;50.948;4.832;2024-01-07T04:32:36;3.00;99.90
8860;DHT22;4466;50.948;4.832;2024-01-07T04:35:02;3.00;99.90
8860;DHT22;4466;50.948;4.832;2024-01-07T04:37:28;3.00;99.90
8860;DHT22;4466;50.948;4.832;2024-01-07T04:39:53;3.10;99.90
8860;DHT22;4466;50.948;4.832;2024-01-07T04:42:19;3.10;99.90
8860;DHT22;4466;50.948;4.832;2024-01-07T04:44:45;3.00;99.90
8860;DHT22;4466;50.948;4.832;2024-01-07T04:47:30;3.00;99.90
8860;DHT22;4466;50.948;4.832;2024-01-07T04:49:57;3.00;99.90
8860;DHT22;4466;50.948;4.832;2024-01-07T04:52:23;3.00;99.90
8860;DHT22;4466;50.948;4.832;2024-01-07T04:54:55;3.00;99.90
8860;DHT22;4466;50.948;4.832;2024-01-07T04:57:22;3.00;99.90
8860;DHT22;4466;50.948;4.832;2024-01-07T04:59:48;3.00;99.90
8860;DHT22;4466;50.948;4.832;2024-01-07T05:02:17;3.00;99.90
8860;DHT22;4466;50.948;4.832;2024-01-07T05:04:43;3.00;99.90
8860;DHT22;4466;50.948;4.832;2024-01-07T05:07:08;3.00;99.90
8860;DHT22;4466;50.948;4.832;2024-01-07T05:09:34;3.00;99.90
8860;DHT22;4466;50.948;4.832;2024-01-07T05:12:00;3.00;99.90
8860;DHT22;4466;50.948;4.832;2024-01-07T05:14:26;3.00;99.90
8860;DHT22;4466;50.948;4.832;2024-01-07T05:16:53;2.90;99.90
8860;DHT22;4466;50.948;4.832;2024-01-07T05:19:22;3.00;99.90
8860;DHT22;4466;50.948;4.832;2024-01-07T05:21:48;3.00;99.90
8860;DHT22;4466;50.948;4.832;2024-01-07T05:24:14;3.00;99.90
8860;DHT22;4466;50.948;4.832;2024-01-07T05:26:43;3.00;99.90
8860;DHT22;4466;50.948;4.832;2024-01-07T05:29:09;3.00;99.90
8860;DHT22;4466;50.948;4.832;2024-01-07T05:31:35;3.00;99.90
8860;DHT22;4466;50.948;4.832;2024-01-07T05:34:01;3.00;99.90
8860;DHT22;4466;50.948;4.832;2024-01-07T05:36:26;3.00;99.90
8860;DHT22;4466;50.948;4.832;2024-01-07T05:38:52;3.00;99.90
8860;DHT22;4466;50.948;4.832;2024-01-07T05:41:18;3.00;99.90
8860;DHT22;4466;50.948;4.832;2024-01-07T05:43:43;3.10;99.90
8860;DHT22;4466;50.948;4.832;2024-01-07T05:46:12;3.00;99.90
8860;DHT22;4466;50.948;4.832;2024-01-07T05:48:42;3.10;99.90
8860;DHT22;4466;50.948;4.832;2024-01-07T05:51:11;3.00;99.90
8860;DHT22;4466;50.948;4.832;2024-01-07T05:53:37;3.00;99.90
8860;DHT22;4466;50.948;4.832;2024-01-07T05:56:06;2.90;99.90
8860;DHT22;4466;50.948;4.832;2024-01-07T05:58:32;2.80;99.90
8860;DHT22;4466;50.948;4.832;2024-01-07T06:00:58;2.80;99.90
8860;DHT22;4466;50.948;4.832;2024-01-07T06:03:24;2.80;99.90
8860;DHT22;4466;50.948;4.832;2024-01-07T06:05:49;2.80;99.90
8860;DHT22;4466;50.948;4.832;2024-01-07T06:08:15;2.70;99.90
8860;DHT22;4466;50.948;4.832;2024-01-07T06:10:41;2.80;99.90
8860;DHT22;4466;50.948;4.832;2024-01-07T06:13:06;2.80;99.90
8860;DHT22;4466;50.948;4.832;2024-01-07T06:15:32;2.90;99.90
8860;DHT22;4466;50.948;4.832;2024-01-07T06:17:58;2.80;99.90
8860;DHT22;4466;50.948;4.832;2024-01-07T06:20:24;2.90;99.90
8860;DHT22;4466;50.948;4.832;2024-01-07T06:22:50;2.90;99.90
8860;DHT22;4466;50.948;4.832;2024-01-07T06:25:16;2.90;99.90
8860;DHT22;4466;50.948;4.832;2024-01-07T06:27:42;2.90;99.90
8860;DHT22;4466;50.948;4.832;2024-01-07T06:30:08;2.90;99.90
8860;DHT22;4466;50.948;4.832;2024-01-07T06:32:34;3.00;99.90
8860;DHT22;4466;50.948;4.832;2024-01-07T06:35:01;2.90;99.90
8860;DHT22;4466;50.948;4.832;2024-01-07T06:37:28;2.90;99.90
8860;DHT22;4466;50.948;4.832;2024-01-07T06:39:56;2.80;99.90
8860;DHT22;4466;50.948;4.832;2024-01-07T06:42:22;2.90;99.90
8860;DHT22;4466;50.948;4.832;2024-01-07T06:44:47;2.90;99.90
8860;DHT22;4466;50.948;4.832;2024-01-07T06:47:13;2.90;99.90
8860;DHT22;4466;50.948;4.832;2024-01-07T06:49:45;2.90;99.90
8860;DHT22;4466;50.948;4.832;2024-01-07T06:52:11;2.80;99.90
8860;DHT22;4466;50.948;4.832;2024-01-07T06:54:37;2.90;99.90
8860;DHT22;4466;50.948;4.832;2024-01-07T06:57:04;2.80;99.90
8860;DHT22;4466;50.948;4.832;2024-01-07T06:59:30;2.90;99.90
8860;DHT22;4466;50.948;4.832;2024-01-07T07:01:56;2.90;99.90
8860;DHT22;4466;50.948;4.832;2024-01-07T07:04:22;2.90;99.90
8860;DHT22;4466;50.948;4.832;2024-01-07T07:06:51;2.90;99.90
8860;DHT22;4466;50.948;4.832;2024-01-07T07:09:28;2.90;99.90
8860;DHT22;4466;50.948;4.832;2024-01-07T07:11:53;2.90;99.90
8860;DHT22;4466;50.948;4.832;2024-01-07T07:14:19;2.90;99.90
8860;DHT22;4466;50.948;4.832;2024-01-07T07:24:28;2.80;99.90
8860;DHT22;4466;50.948;4.832;2024-01-07T07:26:54;2.90;99.90
8860;DHT22;4466;50.948;4.832;2024-01-07T07:29:34;2.90;99.90
8860;DHT22;4466;50.948;4.832;2024-01-07T07:31:59;2.80;99.90
8860;DHT22;4466;50.948;4.832;2024-01-07T07:34:25;2.80;99.90
8860;DHT22;4466;50.948;4.832;2024-01-07T07:39:45;2.80;99.90
8860;DHT22;4466;50.948;4.832;2024-01-07T07:42:13;2.90;99.90
8860;DHT22;4466;50.948;4.832;2024-01-07T07:44:45;2.80;99.90
8860;DHT22;4466;50.948;4.832;2024-01-07T07:47:21;2.80;99.90
8860;DHT22;4466;50.948;4.832;2024-01-07T07:49:46;2.90;99.90
8860;DHT22;4466;50.948;4.832;2024-01-07T07:52:12;2.80;99.90
8860;DHT22;4466;50.948;4.832;2024-01-07T07:54:42;2.90;99.90
8860;DHT22;4466;50.948;4.832;2024-01-07T08:02:51;2.90;99.90
8860;DHT22;4466;50.948;4.832;2024-01-07T08:05:17;2.90;99.90
8860;DHT22;4466;50.948;4.832;2024-01-07T08:10:18;2.90;99.90
8860;DHT22;4466;50.948;4.832;2024-01-07T08:12:44;2.90;99.90
8860;DHT22;4466;50.948;4.832;2024-01-07T08:15:09;2.90;99.90
8860;DHT22;4466;50.948;4.832;2024-01-07T08:17:35;2.90;99.90
8860;DHT22;4466;50.948;4.832;2024-01-07T08:20:01;3.20;99.90
8860;DHT22;4466;50.948;4.832;2024-01-07T08:22:27;3.30;99.90
8860;DHT22;4466;50.948;4.832;2024-01-07T08:24:53;3.20;99.90
8860;DHT22;4466;50.948;4.832;2024-01-07T08:27:25;3.10;99.90
8860;DHT22;4466;50.948;4.832;2024-01-07T08:29:54;3.10;99.90
8860;DHT22;4466;50.948;4.832;2024-01-07T08:35:35;3.00;99.90
8860;DHT22;4466;50.948;4.832;2024-01-07T08:38:04;2.90;99.90
8860;DHT22;4466;50.948;4.832;2024-01-07T08:40:36;2.90;99.90
8860;DHT22;4466;50.948;4.832;2024-01-07T08:43:02;2.80;99.90
8860;DHT22;4466;50.948;4.832;2024-01-07T08:45:37;2.80;99.90
8860;DHT22;4466;50.948;4.832;2024-01-07T08:48:06;2.90;99.90
8860;DHT22;4466;50.948;4.832;2024-01-07T08:50:37;2.80;99.90
8860;DHT22;4466;50.948;4.832;2024-01-07T08:53:02;2.80;99.90
8860;DHT22;4466;50.948;4.832;2024-01-07T08:55:37;2.80;99.90
8860;DHT22;4466;50.948;4.832;2024-01-07T08:58:12;2.80;99.90
8860;DHT22;4466;50.948;4.832;2024-01-07T09:00:39;2.90;99.90
8860;DHT22;4466;50.948;4.832;2024-01-07T09:03:05;2.80;99.90
8860;DHT22;4466;50.948;4.832;2024-01-07T09:05:36;2.80;99.90
8860;DHT22;4466;50.948;4.832;2024-01-07T09:08:04;2.80;99.90
8860;DHT22;4466;50.948;4.832;2024-01-07T09:10:32;2.80;99.90
8860;DHT22;4466;50.948;4.832;2024-01-07T09:12:59;2.70;99.90
8860;DHT22;4466;50.948;4.832;2024-01-07T09:15:25;2.70;99.90
8860;DHT22;4466;50.948;4.832;2024-01-07T09:17:51;2.70;99.90
8860;DHT22;4466;50.948;4.832;2024-01-07T09:20:17;2.70;99.90
8860;DHT22;4466;50.948;4.832;2024-01-07T09:22:43;2.70;99.90
8860;DHT22;4466;50.948;4.832;2024-01-07T09:25:09;2.70;99.90
8860;DHT22;4466;50.948;4.832;2024-01-07T09:27:35;2.70;99.90
8860;DHT22;4466;50.948;4.832;2024-01-07T09:30:01;2.70;99.90
8860;DHT22;4466;50.948;4.832;2024-01-07T09:32:27;2.60;99.90
8860;DHT22;4466;50.948;4.832;2024-01-07T09:34:53;2.60;99.90
8860;DHT22;4466;50.948;4.832;2024-01-07T09:37:19;2.50;99.90
8860;DHT22;4466;50.948;4.832;2024-01-07T09:39:45;2.60;99.90
8860;DHT22;4466;50.948;4.832;2024-01-07T09:42:15;2.50;99.90
8860;DHT22;4466;50.948;4.832;2024-01-07T09:44:42;2.50;99.90
8860;DHT22;4466;50.948;4.832;2024-01-07T09:47:17;2.60;99.90
8860;DHT22;4466;50.948;4.832;2024-01-07T09:49:43;2.50;99.90
8860;DHT22;4466;50.948;4.832;2024-01-07T09:52:10;2.50;99.90
8860;DHT22;4466;50.948;4.832;2024-01-07T09:54:37;2.60;99.90
8860;DHT22;4466;50.948;4.832;2024-01-07T09:59:47;2.60;99.90
8860;DHT22;4466;50.948;4.832;2024-01-07T10:02:14;2.60;99.90
8860;DHT22;4466;50.948;4.832;2024-01-07T10:05:00;2.70;99.90
8860;DHT22;4466;50.948;4.832;2024-01-07T10:07:26;2.70;99.90
8860;DHT22;4466;50.948;4.832;2024-01-07T10:09:52;2.70;99.90
8860;DHT22;4466;50.948;4.832;2024-01-07T10:12:23;2.60;99.90
8860;DHT22;4466;50.948;4.832;2024-01-07T10:14:57;2.60;99.90
8860;DHT22;4466;50.948;4.832;2024-01-07T10:17:24;2.60;99.90
8860;DHT22;4466;50.948;4.832;2024-01-07T10:19:53;2.60;99.90
8860;DHT22;4466;50.948;4.832;2024-01-07T10:22:27;2.70;99.90
8860;DHT22;4466;50.948;4.832;2024-01-07T10:25:06;2.60;99.90
8860;DHT22;4466;50.948;4.832;2024-01-07T10:27:37;2.60;99.90
8860;DHT22;4466;50.948;4.832;2024-01-07T10:30:04;2.60;99.90
8860;DHT22;4466;50.948;4.832;2024-01-07T10:38:26;2.60;99.90
8860;DHT22;4466;50.948;4.832;2024-01-07T10:40:52;2.50;99.90
8860;DHT22;4466;50.948;4.832;2024-01-07T10:43:20;2.60;99.90
8860;DHT22;4466;50.948;4.832;2024-01-07T10:45:47;2.50;99.90
8860;DHT22;4466;50.948;4.832;2024-01-07T10:48:29;2.50;99.90
8860;DHT22;4466;50.948;4.832;2024-01-07T10:51:08;2.40;99.90
8860;DHT22;4466;50.948;4.832;2024-01-07T10:53:39;2.40;99.90
8860;DHT22;4466;50.948;4.832;2024-01-07T10:56:11;2.40;99.90
8860;DHT22;4466;50.948;4.832;2024-01-07T10:58:48;2.40;99.90
8860;DHT22;4466;50.948;4.832;2024-01-07T11:01:14;2.40;99.90
8860;DHT22;4466;50.948;4.832;2024-01-07T11:06:36;2.50;99.90
8860;DHT22;4466;50.948;4.832;2024-01-07T11:09:20;2.40;99.90
8860;DHT22;4466;50.948;4.832;2024-01-07T11:11:46;2.50;99.90
8860;DHT22;4466;50.948;4.832;2024-01-07T11:14:38;2.50;99.90
8860;DHT22;4466;50.948;4.832;2024-01-07T11:17:08;2.50;99.90
8860;DHT22;4466;50.948;4.832;2024-01-07T11:19:38;2.50;99.90
8860;DHT22;4466;50.948;4.832;2024-01-07T11:22:22;2.50;99.90
8860;DHT22;4466;50.948;4.832;2024-01-07T11:24:56;2.50;99.90
8860;DHT22;4466;50.948;4.832;2024-01-07T11:27:23;2.40;99.90
8860;DHT22;4466;50.948;4.832;2024-01-07T11:29:54;2.50;99.90
8860;DHT22;4466;50.948;4.832;2024-01-07T11:32:22;2.50;99.90
8860;DHT22;4466;50.948;4.832;2024-01-07T11:34:49;2.50;99.90
8860;DHT22;4466;50.948;4.832;2024-01-07T11:37:18;2.50;99.90
8860;DHT22;4466;50.948;4.832;2024-01-07T11:39:45;2.50;99.90
8860;DHT22;4466;50.948;4.832;2024-01-07T11:42:11;2.40;99.90
8860;DHT22;4466;50.948;4.832;2024-01-07T11:44:44;2.40;99.90
8860;DHT22;4466;50.948;4.832;2024-01-07T11:47:10;2.40;99.90
8860;DHT22;4466;50.948;4.832;2024-01-07T11:49:36;2.40;99.90
8860;DHT22;4466;50.948;4.832;2024-01-07T11:52:01;2.40;99.90
8860;DHT22;4466;50.948;4.832;2024-01-07T11:54:29;2.40;99.90
8860;DHT22;4466;50.948;4.832;2024-01-07T11:56:56;2.50;99.90
8860;DHT22;4466;50.948;4.832;2024-01-07T11:59:22;2.50;99.90
8860;DHT22;4466;50.948;4.832;2024-01-07T12:04:21;2.50;99.90
8860;DHT22;4466;50.948;4.832;2024-01-07T12:06:50;2.50;99.90
8860;DHT22;4466;50.948;4.832;2024-01-07T12:09:16;2.50;99.90
8860;DHT22;4466;50.948;4.832;2024-01-07T12:11:55;2.50;99.90
8860;DHT22;4466;50.948;4.832;2024-01-07T12:14:24;2.60;99.90
8860;DHT22;4466;50.948;4.832;2024-01-07T12:16:55;2.60;99.90
8860;DHT22;4466;50.948;4.832;2024-01-07T12:21:49;2.60;99.90
8860;DHT22;4466;50.948;4.832;2024-01-07T12:24:32;2.60;99.90
8860;DHT22;4466;50.948;4.832;2024-01-07T12:27:06;2.50;99.90
8860;DHT22;4466;50.948;4.832;2024-01-07T12:29:32;2.60;99.90
8860;DHT22;4466;50.948;4.832;2024-01-07T12:32:17;2.50;99.90
8860;DHT22;4466;50.948;4.832;2024-01-07T12:34:45;2.60;99.90
8860;DHT22;4466;50.948;4.832;2024-01-07T12:37:14;2.60;99.90
8860;DHT22;4466;50.948;4.832;2024-01-07T12:39:43;2.60;99.90
8860;DHT22;4466;50.948;4.832;2024-01-07T12:42:09;2.60;99.90
8860;DHT22;4466;50.948;4.832;2024-01-07T12:47:22;2.60;99.90
8860;DHT22;4466;50.948;4.832;2024-01-07T12:49:48;2.60;99.90
8860;DHT22;4466;50.948;4.832;2024-01-07T12:52:26;2.60;99.90
8860;DHT22;4466;50.948;4.832;2024-01-07T12:54:53;2.60;99.90
8860;DHT22;4466;50.948;4.832;2024-01-07T12:57:25;2.60;99.90
8860;DHT22;4466;50.948;4.832;2024-01-07T12:59:50;2.60;99.90
8860;DHT22;4466;50.948;4.832;2024-01-07T13:04:51;2.60;99.90
8860;DHT22;4466;50.948;4.832;2024-01-07T13:07:17;2.60;99.90
8860;DHT22;4466;50.948;4.832;2024-01-07T13:09:43;2.60;99.90
8860;DHT22;4466;50.948;4.832;2024-01-07T13:12:25;2.60;99.90
8860;DHT22;4466;50.948;4.832;2024-01-07T13:14:54;2.60;99.90
8860;DHT22;4466;50.948;4.832;2024-01-07T13:17:23;2.60;99.90
8860;DHT22;4466;50.948;4.832;2024-01-07T13:19:55;2.60;99.90
8860;DHT22;4466;50.948;4.832;2024-01-07T13:22:37;2.60;99.90
8860;DHT22;4466;50.948;4.832;2024-01-07T13:25:05;2.60;99.90
8860;DHT22;4466;50.948;4.832;2024-01-07T13:27:31;2.70;99.90
8860;DHT22;4466;50.948;4.832;2024-01-07T13:29:56;2.70;99.90
8860;DHT22;4466;50.948;4.832;2024-01-07T13:32:22;2.70;99.90
8860;DHT22;4466;50.948;4.832;2024-01-07T13:34:48;2.70;99.90
8860;DHT22;4466;50.948;4.832;2024-01-07T13:37:13;2.60;99.90
8860;DHT22;4466;50.948;4.832;2024-01-07T13:39:45;2.60;99.90
8860;DHT22;4466;50.948;4.832;2024-01-07T13:42:17;2.60;99.90
8860;DHT22;4466;50.948;4.832;2024-01-07T13:44:46;2.60;99.90
8860;DHT22;4466;50.948;4.832;2024-01-07T13:47:12;2.60;99.90
8860;DHT22;4466;50.948;4.832;2024-01-07T13:49:42;2.70;99.90
8860;DHT22;4466;50.948;4.832;2024-01-07T13:52:14;2.70;99.90
8860;DHT22;4466;50.948;4.832;2024-01-07T13:54:40;2.70;99.90
8860;DHT22;4466;50.948;4.832;2024-01-07T13:57:06;2.70;99.90
8860;DHT22;4466;50.948;4.832;2024-01-07T13:59:41;2.50;99.90
8860;DHT22;4466;50.948;4.832;2024-01-07T14:02:07;2.60;99.90
8860;DHT22;4466;50.948;4.832;2024-01-07T14:04:45;2.60;99.90
8860;DHT22;4466;50.948;4.832;2024-01-07T14:07:36;2.60;99.90
8860;DHT22;4466;50.948;4.832;2024-01-07T14:10:02;2.50;99.90
8860;DHT22;4466;50.948;4.832;2024-01-07T14:12:28;2.50;99.90
8860;DHT22;4466;50.948;4.832;2024-01-07T14:15:07;2.50;99.90
8860;DHT22;4466;50.948;4.832;2024-01-07T14:17:46;2.50;99.90
8860;DHT22;4466;50.948;4.832;2024-01-07T14:20:14;2.50;99.90
8860;DHT22;4466;50.948;4.832;2024-01-07T14:23:04;2.60;99.90
8860;DHT22;4466;50.948;4.832;2024-01-07T14:25:30;2.50;99.90
8860;DHT22;4466;50.948;4.832;2024-01-07T14:27:56;2.50;99.90
8860;DHT22;4466;50.948;4.832;2024-01-07T14:30:27;2.50;99.90
8860;DHT22;4466;50.948;4.832;2024-01-07T14:32:53;2.50;99.90
8860;DHT22;4466;50.948;4.832;2024-01-07T14:35:19;2.60;99.90
8860;DHT22;4466;50.948;4.832;2024-01-07T14:37:44;2.50;99.90
8860;DHT22;4466;50.948;4.832;2024-01-07T14:40:10;2.50;99.90
8860;DHT22;4466;50.948;4.832;2024-01-07T14:42:36;2.50;99.90
8860;DHT22;4466;50.948;4.832;2024-01-07T14:45:02;2.50;99.90
8860;DHT22;4466;50.948;4.832;2024-01-07T14:47:29;2.50;99.90
8860;DHT22;4466;50.948;4.832;2024-01-07T14:49:55;2.40;99.90
8860;DHT22;4466;50.948;4.832;2024-01-07T14:52:22;2.50;99.90
8860;DHT22;4466;50.948;4.832;2024-01-07T14:54:54;2.60;99.90
8860;DHT22;4466;50.948;4.832;2024-01-07T14:57:20;2.60;99.90
8860;DHT22;4466;50.948;4.832;2024-01-07T14:59:45;2.50;99.90
8860;DHT22;4466;50.948;4.832;2024-01-07T15:02:11;2.40;99.90
8860;DHT22;4466;50.948;4.832;2024-01-07T15:04:46;2.40;99.90
8860;DHT22;4466;50.948;4.832;2024-01-07T15:07:11;2.30;99.90
8860;DHT22;4466;50.948;4.832;2024-01-07T15:09:40;2.30;99.90
8860;DHT22;4466;50.948;4.832;2024-01-07T15:12:07;2.20;99.90
8860;DHT22;4466;50.948;4.832;2024-01-07T15:14:32;2.10;99.90
8860;DHT22;4466;50.948;4.832;2024-01-07T15:16:58;2.10;99.90
8860;DHT22;4466;50.948;4.832;2024-01-07T15:19:27;2.00;99.90
8860;DHT22;4466;50.948;4.832;2024-01-07T15:21:52;2.00;99.90
8860;DHT22;4466;50.948;4.832;2024-01-07T15:24:18;2.00;99.90
8860;DHT22;4466;50.948;4.832;2024-01-07T15:26:44;1.90;99.90
8860;DHT22;4466;50.948;4.832;2024-01-07T15:29:10;1.90;99.90
8860;DHT22;4466;50.948;4.832;2024-01-07T15:31:35;1.90;99.90
8860;DHT22;4466;50.948;4.832;2024-01-07T15:34:01;1.90;99.90
8860;DHT22;4466;50.948;4.832;2024-01-07T15:36:27;1.90;99.90
8860;DHT22;4466;50.948;4.832;2024-01-07T15:38:52;1.90;99.90
8860;DHT22;4466;50.948;4.832;2024-01-07T15:41:18;1.90;99.90
8860;DHT22;4466;50.948;4.832;2024-01-07T15:43:43;1.80;99.90
8860;DHT22;4466;50.948;4.832;2024-01-07T15:46:09;1.80;99.90
8860;DHT22;4466;50.948;4.832;2024-01-07T15:48:35;1.80;99.90
8860;DHT22;4466;50.948;4.832;2024-01-07T15:51:01;1.80;99.90
8860;DHT22;4466;50.948;4.832;2024-01-07T15:53:26;1.80;99.90
8860;DHT22;4466;50.948;4.832;2024-01-07T15:56:04;1.70;99.90
8860;DHT22;4466;50.948;4.832;2024-01-07T15:58:32;1.70;99.90
8860;DHT22;4466;50.948;4.832;2024-01-07T16:01:03;1.70;99.90
8860;DHT22;4466;50.948;4.832;2024-01-07T16:03:32;1.60;99.90
8860;DHT22;4466;50.948;4.832;2024-01-07T16:05:58;1.60;99.90
8860;DHT22;4466;50.948;4.832;2024-01-07T16:08:24;1.60;99.90
8860;DHT22;4466;50.948;4.832;2024-01-07T16:10:57;1.60;99.90
8860;DHT22;4466;50.948;4.832;2024-01-07T16:13:24;1.60;99.90
8860;DHT22;4466;50.948;4.832;2024-01-07T16:15:50;1.60;99.90
8860;DHT22;4466;50.948;4.832;2024-01-07T16:18:16;1.60;99.90
8860;DHT22;4466;50.948;4.832;2024-01-07T16:20:43;1.50;99.90
8860;DHT22;4466;50.948;4.832;2024-01-07T16:23:08;1.50;99.90
8860;DHT22;4466;50.948;4.832;2024-01-07T16:25:34;1.50;99.90
8860;DHT22;4466;50.948;4.832;2024-01-07T16:28:00;1.60;99.90
8860;DHT22;4466;50.948;4.832;2024-01-07T16:30:26;1.60;99.90
8860;DHT22;4466;50.948;4.832;2024-01-07T16:32:52;1.50;99.90
8860;DHT22;4466;50.948;4.832;2024-01-07T16:35:18;1.50;99.90
8860;DHT22;4466;50.948;4.832;2024-01-07T16:37:44;1.50;99.90
8860;DHT22;4466;50.948;4.832;2024-01-07T16:40:09;1.50;99.90
8860;DHT22;4466;50.948;4.832;2024-01-07T16:42:38;1.40;99.90
8860;DHT22;4466;50.948;4.832;2024-01-07T16:45:04;1.40;99.90
8860;DHT22;4466;50.948;4.832;2024-01-07T16:47:30;1.40;99.90
8860;DHT22;4466;50.948;4.832;2024-01-07T16:49:56;1.40;99.90
8860;DHT22;4466;50.948;4.832;2024-01-07T16:52:21;1.40;99.90
8860;DHT22;4466;50.948;4.832;2024-01-07T16:54:47;1.30;99.90
8860;DHT22;4466;50.948;4.832;2024-01-07T16:57:13;1.30;99.90
8860;DHT22;4466;50.948;4.832;2024-01-07T16:59:39;1.30;99.90
8860;DHT22;4466;50.948;4.832;2024-01-07T17:02:05;1.40;99.90
8860;DHT22;4466;50.948;4.832;2024-01-07T17:04:31;1.30;99.90
8860;DHT22;4466;50.948;4.832;2024-01-07T17:06:57;1.40;99.90
8860;DHT22;4466;50.948;4.832;2024-01-07T17:09:26;1.40;99.90